createdAt,value
2023-05-02T00:00:12.969Z,4.60
2023-05-02T00:02:41.676Z,4.03
2023-05-02T00:05:11.429Z,5.33
2023-05-02T00:07:39.711Z,4.60
2023-05-02T00:10:09.159Z,5.60
2023-05-02T00:12:37.444Z,4.53
2023-05-02T00:15:06.953Z,3.93
2023-05-02T00:17:34.968Z,4.43
2023-05-02T00:20:04.508Z,3.93
2023-05-02T00:22:33.912Z,5.47
2023-05-02T00:25:02.380Z,4.60
2023-05-02T00:27:31.929Z,4.37
2023-05-02T00:30:00.884Z,6.43
2023-05-02T00:32:29.499Z,6.10
2023-05-02T00:34:57.627Z,4.80
2023-05-02T00:37:28.955Z,6.03
2023-05-02T00:39:59.526Z,4.53
2023-05-02T00:42:29.356Z,5.03
2023-05-02T00:44:57.458Z,4.10
2023-05-02T00:47:25.559Z,3.87
2023-05-02T00:49:53.630Z,6.17
2023-05-02T00:52:21.774Z,4.73
2023-05-02T00:54:50.492Z,5.47
2023-05-02T00:57:19.886Z,5.47
2023-05-02T00:59:48.082Z,4.63
2023-05-02T01:02:33.334Z,7.53
2023-05-02T01:05:12.381Z,4.70
2023-05-02T01:08:11.632Z,4.30
2023-05-02T01:10:51.234Z,5.20
2023-05-02T01:13:23.828Z,10.53
2023-05-02T01:15:54.370Z,4.40
2023-05-02T01:18:25.797Z,4.67
2023-05-02T01:21:01.975Z,4.60
2023-05-02T01:23:40.001Z,4.47
2023-05-02T01:26:21.312Z,5.50
2023-05-02T01:29:05.764Z,5.60
2023-05-02T01:31:37.827Z,5.47
2023-05-02T01:34:10.687Z,5.37
2023-05-02T01:36:45.072Z,4.97
2023-05-02T01:39:19.479Z,7.83
2023-05-02T01:41:53.401Z,4.70
2023-05-02T01:44:25.258Z,5.70
2023-05-02T01:46:55.955Z,5.70
2023-05-02T01:49:26.518Z,5.10
2023-05-02T01:51:54.911Z,4.03
2023-05-02T01:54:25.787Z,5.00
2023-05-02T01:56:53.995Z,5.13
2023-05-02T01:59:26.835Z,4.77
2023-05-02T02:01:56.053Z,8.60
2023-05-02T02:04:26.963Z,5.60
2023-05-02T02:07:04.304Z,6.10
2023-05-02T02:09:33.397Z,4.53
2023-05-02T02:12:08.062Z,5.43
2023-05-02T02:14:43.788Z,4.83
2023-05-02T02:17:16.406Z,6.73
2023-05-02T02:19:45.167Z,5.23
2023-05-02T02:22:16.196Z,4.67
2023-05-02T02:24:46.759Z,4.37
2023-05-02T02:27:15.244Z,4.83
2023-05-02T02:29:44.940Z,4.37
2023-05-02T02:32:14.069Z,4.73
2023-05-02T02:34:42.184Z,5.80
2023-05-02T02:37:19.002Z,4.53
2023-05-02T02:39:59.771Z,6.70
2023-05-02T02:42:40.622Z,3.97
2023-05-02T02:45:26.053Z,5.17
2023-05-02T02:48:09.625Z,4.83
2023-05-02T02:50:47.886Z,7.67
2023-05-02T02:53:21.688Z,6.33
2023-05-02T02:55:58.817Z,6.37
2023-05-02T02:58:48.292Z,5.07
2023-05-02T03:01:21.578Z,5.53
2023-05-02T03:03:50.592Z,6.37
2023-05-02T03:06:19.988Z,6.17
2023-05-02T03:08:48.606Z,5.60
2023-05-02T03:11:21.343Z,6.00
2023-05-02T03:13:49.624Z,5.17
2023-05-02T03:16:37.558Z,5.97
2023-05-02T03:19:09.607Z,5.83
2023-05-02T03:21:37.933Z,8.53
2023-05-02T03:24:17.739Z,5.50
2023-05-02T03:26:48.245Z,5.37
2023-05-02T03:29:19.659Z,5.70
2023-05-02T03:31:49.094Z,5.03
2023-05-02T03:34:17.343Z,5.17
2023-05-02T03:36:48.608Z,5.13
2023-05-02T03:39:17.198Z,6.63
2023-05-02T03:41:46.671Z,5.90
2023-05-02T03:44:18.785Z,6.43
2023-05-02T03:46:48.788Z,6.40
2023-05-02T03:49:19.688Z,6.50
2023-05-02T03:51:49.749Z,5.67
2023-05-02T03:54:22.690Z,5.07
2023-05-02T03:56:51.229Z,5.90
2023-05-02T03:59:25.316Z,5.43
2023-05-02T04:01:55.282Z,5.17
2023-05-02T04:04:30.067Z,5.47
2023-05-02T04:06:58.380Z,6.47
2023-05-02T04:09:26.615Z,6.40
2023-05-02T04:12:02.609Z,6.57
2023-05-02T04:14:32.395Z,7.57
2023-05-02T04:17:01.920Z,7.17
2023-05-02T04:19:41.081Z,5.93
2023-05-02T04:22:09.846Z,5.97
2023-05-02T04:24:43.092Z,6.87
2023-05-02T04:27:13.694Z,7.10
2023-05-02T04:29:43.409Z,6.27
2023-05-02T04:32:13.943Z,6.73
2023-05-02T04:34:42.114Z,5.70
2023-05-02T04:37:11.154Z,5.67
2023-05-02T04:39:39.996Z,6.70
2023-05-02T04:42:13.276Z,5.43
2023-05-02T04:44:50.276Z,7.73
2023-05-02T04:47:20.257Z,6.63
2023-05-02T04:49:48.363Z,6.10
2023-05-02T04:52:16.522Z,6.30
2023-05-02T04:54:45.305Z,7.03
2023-05-02T04:57:13.402Z,5.77
2023-05-02T04:59:46.320Z,6.10
2023-05-02T05:02:14.454Z,5.20
2023-05-02T05:04:45.692Z,6.67
2023-05-02T05:07:13.890Z,6.43
2023-05-02T05:09:43.930Z,7.70
2023-05-02T05:12:12.028Z,7.73
2023-05-02T05:14:40.131Z,7.00
2023-05-02T05:17:09.177Z,7.90
2023-05-02T05:19:37.351Z,7.23
2023-05-02T05:22:06.981Z,7.33
2023-05-02T05:24:35.144Z,6.20
2023-05-02T05:27:03.959Z,7.70
2023-05-02T05:29:33.648Z,8.87
2023-05-02T05:32:01.746Z,7.83
2023-05-02T05:34:30.948Z,10.27
2023-05-02T05:37:01.987Z,8.67
2023-05-02T05:39:31.692Z,10.23
2023-05-02T05:42:02.560Z,11.00
2023-05-02T05:44:31.773Z,8.63
2023-05-02T05:47:00.910Z,11.70
2023-05-02T05:49:29.574Z,10.40
2023-05-02T05:51:57.778Z,9.90
2023-05-02T05:54:26.147Z,9.43
2023-05-02T05:56:56.054Z,11.27
2023-05-02T05:59:24.195Z,12.03
2023-05-02T06:01:52.313Z,10.03
2023-05-02T06:04:22.953Z,11.97
2023-05-02T06:06:53.803Z,14.17
2023-05-02T06:09:21.846Z,11.63
2023-05-02T06:11:49.952Z,13.10
2023-05-02T06:14:19.340Z,12.07
2023-05-02T06:16:49.788Z,11.43
2023-05-02T06:19:17.878Z,10.90
2023-05-02T06:21:45.898Z,13.27
2023-05-02T06:24:13.988Z,15.53
2023-05-02T06:26:41.988Z,13.00
2023-05-02T06:29:10.046Z,13.13
2023-05-02T06:31:39.536Z,15.30
2023-05-02T06:34:07.899Z,18.93
2023-05-02T06:36:35.958Z,19.17
2023-05-02T06:39:04.043Z,16.57
2023-05-02T06:41:32.043Z,16.57
2023-05-02T06:44:00.116Z,17.67
2023-05-02T06:46:31.494Z,18.23
2023-05-02T06:49:00.936Z,15.77
2023-05-02T06:51:29.634Z,13.20
2023-05-02T06:53:57.675Z,17.20
2023-05-02T06:56:26.515Z,15.97
2023-05-02T06:58:54.672Z,17.37
2023-05-02T07:01:22.814Z,14.97
2023-05-02T07:03:50.980Z,15.87
2023-05-02T07:06:20.692Z,17.00
2023-05-02T07:08:48.931Z,17.43
2023-05-02T07:11:16.963Z,17.53
2023-05-02T07:13:45.014Z,19.43
2023-05-02T07:16:13.450Z,17.33
2023-05-02T07:18:42.314Z,19.70
2023-05-02T07:21:10.434Z,19.33
2023-05-02T07:23:39.787Z,19.80
2023-05-02T07:26:08.094Z,19.80
2023-05-02T07:28:36.566Z,19.23
2023-05-02T07:31:04.579Z,21.23
2023-05-02T07:33:32.613Z,20.23
2023-05-02T07:36:02.555Z,20.43
2023-05-02T07:38:30.713Z,20.20
2023-05-02T07:41:01.629Z,24.77
2023-05-02T07:43:29.855Z,24.67
2023-05-02T07:45:58.326Z,26.07
2023-05-02T07:48:27.972Z,26.17
2023-05-02T07:50:56.109Z,24.20
2023-05-02T07:53:24.580Z,21.83
2023-05-02T07:55:52.616Z,24.47
2023-05-02T07:58:22.132Z,24.77
2023-05-02T08:00:50.345Z,24.83
2023-05-02T08:03:18.487Z,28.10
2023-05-02T08:08:38.873Z,26.53
2023-05-02T08:11:06.920Z,24.17
2023-05-02T08:13:36.264Z,25.97
2023-05-02T08:16:04.524Z,27.33
2023-05-02T08:18:32.574Z,28.40
2023-05-02T08:21:00.643Z,29.23
2023-05-02T08:23:28.732Z,27.00
2023-05-02T08:25:56.739Z,28.37
2023-05-02T08:28:24.789Z,26.13
2023-05-02T08:30:54.340Z,26.07
2023-05-02T08:33:22.687Z,25.63
2023-05-02T08:35:50.897Z,27.80
2023-05-02T08:38:18.935Z,26.23
2023-05-02T08:40:47.351Z,24.20
2023-05-02T08:43:18.690Z,23.20
2023-05-02T08:45:46.924Z,24.13
2023-05-02T08:48:17.909Z,24.73
2023-05-02T08:50:48.486Z,25.60
2023-05-02T08:53:17.744Z,28.13
2023-05-02T08:55:46.133Z,25.53
2023-05-02T08:58:15.521Z,25.37
2023-05-02T09:00:49.531Z,31.27
2023-05-02T09:03:32.519Z,27.93
2023-05-02T09:06:08.430Z,27.67
2023-05-02T09:08:37.067Z,28.13
2023-05-02T09:11:06.002Z,28.13
2023-05-02T09:13:37.485Z,24.47
2023-05-02T09:16:07.876Z,23.40
2023-05-02T09:18:41.671Z,23.30
2023-05-02T09:21:12.881Z,27.13
2023-05-02T09:23:43.927Z,25.03
2023-05-02T09:26:18.077Z,24.10
2023-05-02T09:28:47.379Z,25.93
2023-05-02T09:31:26.907Z,21.60
2023-05-02T09:33:58.835Z,22.53
2023-05-02T09:36:26.873Z,24.40
2023-05-02T09:39:09.912Z,18.33
2023-05-02T09:41:41.676Z,19.00
2023-05-02T09:44:12.552Z,16.93
2023-05-02T09:46:42.577Z,22.27
2023-05-02T09:49:12.490Z,17.57
2023-05-02T09:51:40.764Z,18.30
2023-05-02T09:54:08.838Z,16.57
2023-05-02T09:56:54.345Z,21.77
2023-05-02T09:59:22.379Z,17.10
2023-05-02T10:01:57.693Z,17.57
2023-05-02T10:04:28.735Z,16.40
2023-05-02T10:06:58.551Z,19.10
2023-05-02T10:09:28.035Z,18.43
2023-05-02T10:11:57.909Z,18.13
2023-05-02T10:14:29.531Z,17.90
2023-05-02T10:17:06.823Z,18.77
2023-05-02T10:19:46.398Z,17.43
2023-05-02T10:22:14.668Z,20.33
2023-05-02T10:24:43.432Z,21.23
2023-05-02T10:27:11.567Z,20.37
2023-05-02T10:29:41.571Z,16.43
2023-05-02T10:32:10.106Z,15.83
2023-05-02T10:34:41.425Z,15.80
2023-05-02T10:37:10.370Z,18.43
2023-05-02T10:39:38.866Z,16.93
2023-05-02T10:42:08.308Z,15.37
2023-05-02T10:44:37.525Z,17.00
2023-05-02T10:47:21.372Z,21.07
2023-05-02T10:49:56.694Z,17.40
2023-05-02T10:52:32.937Z,18.03
2023-05-02T10:55:21.209Z,15.00
2023-05-02T10:58:23.909Z,13.73
2023-05-02T11:00:52.100Z,17.70
2023-05-02T11:03:58.522Z,18.40
2023-05-02T11:06:29.684Z,19.03
2023-05-02T11:09:34.083Z,17.83
2023-05-02T11:12:04.905Z,22.50
2023-05-02T11:14:52.095Z,19.40
2023-05-02T11:17:21.025Z,18.63
2023-05-02T11:20:26.501Z,17.67
2023-05-02T11:22:58.874Z,18.97
2023-05-02T11:25:39.414Z,19.23
2023-05-02T11:28:10.293Z,18.43
2023-05-02T11:30:44.729Z,18.90
2023-05-02T11:33:20.234Z,20.73
2023-05-02T11:35:51.593Z,23.27
2023-05-02T11:38:22.862Z,22.67
2023-05-02T11:41:00.942Z,22.33
2023-05-02T11:43:31.926Z,23.97
2023-05-02T11:46:02.559Z,28.30
2023-05-02T11:48:35.060Z,17.33
2023-05-02T11:51:07.189Z,20.70
2023-05-02T11:53:42.743Z,21.07
2023-05-02T11:56:10.922Z,21.70
2023-05-02T11:58:39.061Z,25.20
2023-05-02T12:01:33.982Z,21.43
2023-05-02T12:04:07.199Z,20.83
2023-05-02T12:06:36.134Z,21.93
2023-05-02T12:09:16.117Z,21.23
2023-05-02T12:11:45.805Z,21.93
2023-05-02T12:14:14.199Z,22.43
2023-05-02T12:16:43.154Z,22.77
2023-05-02T12:19:11.629Z,20.30
2023-05-02T12:21:39.693Z,18.97
2023-05-02T12:24:07.833Z,23.73
2023-05-02T12:26:43.216Z,22.93
2023-05-02T12:29:41.283Z,24.00
2023-05-02T12:32:09.853Z,20.13
2023-05-02T12:34:39.591Z,24.07
2023-05-02T12:37:09.315Z,22.80
2023-05-02T12:39:38.806Z,22.37
2023-05-02T12:42:15.717Z,24.97
2023-05-02T12:44:45.972Z,22.57
2023-05-02T12:47:16.720Z,23.93
2023-05-02T12:49:52.031Z,23.03
2023-05-02T12:52:21.003Z,20.93
2023-05-02T12:54:49.858Z,24.03
2023-05-02T12:57:26.829Z,24.80
2023-05-02T12:59:55.336Z,22.20
2023-05-02T13:02:23.869Z,20.57
2023-05-02T13:04:52.795Z,21.10
2023-05-02T13:07:20.957Z,20.47
2023-05-02T13:09:49.357Z,21.87
2023-05-02T13:12:18.173Z,20.83
2023-05-02T13:14:47.617Z,19.33
2023-05-02T13:17:15.834Z,18.07
2023-05-02T13:20:01.549Z,16.33
2023-05-02T13:22:30.675Z,16.37
2023-05-02T13:24:58.773Z,16.43
2023-05-02T13:27:28.074Z,18.97
2023-05-02T13:29:57.510Z,19.70
2023-05-02T13:32:25.794Z,19.57
2023-05-02T13:34:53.883Z,19.37
2023-05-02T13:37:22.134Z,19.23
2023-05-02T13:39:50.164Z,18.13
2023-05-02T13:42:18.265Z,16.93
2023-05-02T13:44:46.412Z,16.30
2023-05-02T13:47:15.888Z,18.43
2023-05-02T13:49:43.874Z,15.57
2023-05-02T13:52:11.859Z,15.50
2023-05-02T13:54:40.416Z,10.70
2023-05-02T13:57:08.441Z,11.40
2023-05-02T13:59:36.541Z,11.50
2023-05-02T14:02:04.745Z,17.17
2023-05-02T14:04:34.398Z,14.17
2023-05-02T14:07:02.584Z,13.23
2023-05-02T14:09:30.727Z,14.67
2023-05-02T14:11:59.181Z,13.20
2023-05-02T14:14:27.305Z,15.67
2023-05-02T14:16:55.967Z,14.20
2023-05-02T14:19:24.055Z,12.37
2023-05-02T14:21:53.626Z,12.33
2023-05-02T14:24:21.698Z,11.67
2023-05-02T14:26:49.886Z,15.80
2023-05-02T14:29:18.089Z,13.87
2023-05-02T14:31:46.558Z,16.20
2023-05-02T14:34:14.642Z,11.37
2023-05-02T14:36:42.682Z,12.80
2023-05-02T14:39:12.293Z,11.37
2023-05-02T14:41:40.338Z,11.73
2023-05-02T14:44:08.909Z,13.73
2023-05-02T14:46:37.010Z,16.10
2023-05-02T14:49:05.073Z,13.17
2023-05-02T14:51:33.157Z,11.80
2023-05-02T14:54:01.484Z,13.93
2023-05-02T14:56:31.190Z,15.93
2023-05-02T14:58:59.502Z,15.07
2023-05-02T15:01:27.838Z,12.13
2023-05-02T15:04:06.697Z,14.87
2023-05-02T15:06:36.784Z,13.47
2023-05-02T15:09:05.902Z,10.33
2023-05-02T15:11:35.426Z,11.40
2023-05-02T15:14:03.613Z,9.30
2023-05-02T15:16:32.146Z,12.17
2023-05-02T15:19:00.340Z,10.77
2023-05-02T15:21:28.616Z,8.27
2023-05-02T15:23:57.042Z,7.80
2023-05-02T15:26:26.026Z,9.77
2023-05-02T15:28:55.683Z,7.80
2023-05-02T15:31:24.600Z,7.80
2023-05-02T15:33:52.763Z,8.17
2023-05-02T15:36:21.305Z,8.07
2023-05-02T15:38:49.387Z,8.07
2023-05-02T15:41:17.529Z,6.73
2023-05-02T15:43:45.632Z,9.93
2023-05-02T15:46:15.288Z,6.03
2023-05-02T15:48:43.457Z,4.83
2023-05-02T15:51:13.512Z,8.27
2023-05-02T15:53:44.348Z,5.70
2023-05-02T15:56:13.238Z,5.53
2023-05-02T15:58:41.600Z,4.37
2023-05-02T16:01:09.922Z,4.97
2023-05-02T16:03:39.438Z,3.83
2023-05-02T16:06:08.893Z,6.57
2023-05-02T16:08:37.065Z,4.80
2023-05-02T16:11:05.197Z,5.87
2023-05-02T16:13:33.579Z,5.77
2023-05-02T16:16:01.747Z,6.57
2023-05-02T16:18:29.813Z,4.07
2023-05-02T16:20:59.451Z,2.63
2023-05-02T16:23:27.820Z,4.77
2023-05-02T16:25:59.003Z,3.40
2023-05-02T16:28:27.205Z,3.43
2023-05-02T16:30:55.441Z,2.90
2023-05-02T16:33:23.856Z,1.50
2023-05-02T16:36:02.856Z,2.93
2023-05-02T16:38:31.357Z,4.07
2023-05-02T16:40:59.665Z,1.90
2023-05-02T16:43:27.726Z,3.43
2023-05-02T16:46:02.714Z,2.77
2023-05-02T16:48:36.122Z,2.63
2023-05-02T16:51:06.969Z,5.87
2023-05-02T16:53:35.103Z,3.87
2023-05-02T16:56:03.100Z,5.07
2023-05-02T16:58:31.234Z,4.43
2023-05-02T17:01:01.011Z,3.23
2023-05-02T17:03:30.099Z,4.10
2023-05-02T17:06:01.657Z,3.23
2023-05-02T17:08:31.350Z,3.83
2023-05-02T17:10:59.373Z,4.33
2023-05-02T17:13:27.490Z,4.07
2023-05-02T17:15:55.846Z,4.20
2023-05-02T17:18:24.026Z,3.33
2023-05-02T17:20:52.126Z,2.67
2023-05-02T17:23:20.266Z,4.23
2023-05-02T17:25:51.506Z,4.07
2023-05-02T17:28:20.033Z,4.30
2023-05-02T17:30:48.496Z,4.23
2023-05-02T17:33:16.612Z,2.93
2023-05-02T17:35:45.435Z,3.47
2023-05-02T17:38:13.470Z,5.87
2023-05-02T17:40:41.497Z,4.03
2023-05-02T17:43:10.975Z,3.27
2023-05-02T17:45:41.491Z,3.93
2023-05-02T17:48:09.594Z,3.10
2023-05-02T17:50:38.495Z,4.57
2023-05-02T17:53:07.151Z,5.17
2023-05-02T17:55:38.592Z,4.47
2023-05-02T17:58:06.662Z,5.00
2023-05-02T18:00:36.049Z,7.63
2023-05-02T18:03:04.341Z,6.57
2023-05-02T18:05:38.566Z,4.87
2023-05-02T18:08:07.237Z,6.80
2023-05-02T18:10:38.041Z,6.70
2023-05-02T18:13:06.317Z,5.40
2023-05-02T18:15:36.059Z,7.13
2023-05-02T18:18:04.345Z,6.73
2023-05-02T18:20:32.602Z,4.30
2023-05-02T18:23:01.284Z,4.50
2023-05-02T18:25:29.388Z,5.17
2023-05-02T18:27:57.458Z,5.57
2023-05-02T18:30:25.492Z,5.43
2023-05-02T18:32:55.835Z,6.27
2023-05-02T18:35:24.172Z,5.50
2023-05-02T18:37:52.475Z,8.47
2023-05-02T18:40:20.969Z,7.07
2023-05-02T18:42:49.012Z,5.67
2023-05-02T18:45:17.279Z,5.17
2023-05-02T18:47:45.472Z,5.53
2023-05-02T18:50:15.068Z,5.27
2023-05-02T18:52:43.186Z,6.80
2023-05-02T18:55:11.490Z,8.13
2023-05-02T18:57:39.665Z,5.87
2023-05-02T19:00:09.723Z,5.70
2023-05-02T19:02:37.853Z,7.37
2023-05-02T19:05:07.268Z,9.20
2023-05-02T19:07:38.452Z,14.50
2023-05-02T19:10:07.809Z,13.00
2023-05-02T19:12:35.849Z,10.33
2023-05-02T19:15:06.375Z,10.33
2023-05-02T19:17:35.041Z,7.53
2023-05-02T19:20:03.887Z,6.50
2023-05-02T19:22:34.508Z,7.57
2023-05-02T19:25:04.384Z,7.63
2023-05-02T19:27:32.654Z,8.23
2023-05-02T19:30:00.757Z,7.57
2023-05-02T19:32:28.752Z,9.53
2023-05-02T19:34:56.872Z,9.20
2023-05-02T19:37:24.994Z,8.90
2023-05-02T19:39:53.484Z,10.40
2023-05-02T19:42:23.233Z,6.40
2023-05-02T19:44:54.197Z,5.50
2023-05-02T19:47:22.453Z,5.23
2023-05-02T19:49:52.495Z,4.93
2023-05-02T19:52:20.537Z,4.43
2023-05-02T19:54:51.337Z,3.70
2023-05-02T19:57:22.403Z,4.30
2023-05-02T19:59:55.612Z,8.10
2023-05-02T20:02:24.781Z,5.07
2023-05-02T20:04:53.678Z,3.73
2023-05-02T20:07:21.707Z,6.00
2023-05-02T20:09:49.691Z,4.17
2023-05-02T20:12:17.722Z,5.77
2023-05-02T20:14:47.094Z,5.23
2023-05-02T20:17:15.115Z,5.17
2023-05-02T20:19:43.169Z,6.50
2023-05-02T20:22:12.927Z,5.37
2023-05-02T20:24:41.060Z,5.57
2023-05-02T20:27:09.822Z,6.33
2023-05-02T20:29:38.555Z,5.43
2023-05-02T20:32:08.281Z,6.63
2023-05-02T20:34:36.435Z,4.97
2023-05-02T20:37:06.809Z,7.20
2023-05-02T20:39:34.897Z,6.93
2023-05-02T20:42:04.220Z,6.20
2023-05-02T20:44:33.637Z,7.50
2023-05-02T20:47:01.728Z,10.47
2023-05-02T20:49:33.740Z,6.90
2023-05-02T20:52:05.369Z,7.37
2023-05-02T20:54:33.645Z,6.17
2023-05-02T20:57:03.357Z,5.83
2023-05-02T20:59:31.928Z,6.90
2023-05-02T21:02:00.167Z,7.27
2023-05-02T21:04:28.466Z,6.10
2023-05-02T21:06:57.838Z,7.53
2023-05-02T21:09:25.992Z,8.03
2023-05-02T21:11:54.242Z,5.27
2023-05-02T21:14:25.504Z,6.43
2023-05-02T21:16:54.331Z,5.00
2023-05-02T21:19:22.625Z,6.73
2023-05-02T21:21:50.925Z,5.57
2023-05-02T21:24:20.310Z,5.40
2023-05-02T21:26:48.421Z,7.50
2023-05-02T21:29:16.665Z,6.77
2023-05-02T21:31:44.789Z,6.03
2023-05-02T21:34:12.923Z,6.40
2023-05-02T21:36:42.056Z,6.87
2023-05-02T21:39:10.526Z,4.57
2023-05-02T21:41:40.021Z,8.27
2023-05-02T21:44:11.082Z,6.57
2023-05-02T21:46:39.258Z,9.00
2023-05-02T21:49:07.476Z,5.83
2023-05-02T21:51:38.634Z,5.47
2023-05-02T21:54:07.373Z,5.23
2023-05-02T21:56:35.440Z,5.80
2023-05-02T21:59:04.847Z,6.43
2023-05-02T22:01:32.919Z,9.33
2023-05-02T22:04:01.090Z,6.53
2023-05-02T22:06:29.455Z,6.83
2023-05-02T22:08:57.513Z,7.27
2023-05-02T22:11:25.607Z,7.93
2023-05-02T22:13:53.759Z,6.33
2023-05-02T22:16:23.144Z,5.37
2023-05-02T22:18:51.490Z,7.57
2023-05-02T22:21:19.761Z,7.90
2023-05-02T22:23:47.810Z,6.10
2023-05-02T22:26:15.816Z,6.67
2023-05-02T22:28:43.932Z,8.23
2023-05-02T22:31:12.277Z,7.33
2023-05-02T22:33:41.642Z,6.93
2023-05-02T22:36:10.177Z,7.80
2023-05-02T22:38:40.078Z,6.73
2023-05-02T22:41:08.293Z,7.67
2023-05-02T22:43:36.625Z,5.67
2023-05-02T22:46:04.722Z,5.77
2023-05-02T22:48:32.814Z,7.13
2023-05-02T22:51:02.248Z,7.63
2023-05-02T22:53:30.306Z,6.07
2023-05-02T22:55:58.418Z,7.07
2023-05-02T22:58:26.428Z,5.23
2023-05-02T23:00:54.562Z,5.13
2023-05-02T23:03:22.745Z,4.67
2023-05-02T23:05:50.969Z,5.43
2023-05-02T23:08:20.904Z,5.93
2023-05-02T23:10:49.113Z,7.17
2023-05-02T23:13:17.225Z,6.00
2023-05-02T23:15:45.247Z,5.47
2023-05-02T23:18:13.371Z,5.83
2023-05-02T23:20:41.437Z,8.10
2023-05-02T23:23:09.449Z,5.80
2023-05-02T23:25:39.657Z,5.00
2023-05-02T23:28:07.728Z,6.20
2023-05-02T23:30:35.906Z,4.63
2023-05-02T23:33:04.098Z,5.40
2023-05-02T23:35:32.894Z,6.83
2023-05-02T23:38:01.780Z,5.93
2023-05-02T23:40:29.809Z,5.57
2023-05-02T23:42:59.795Z,5.23
2023-05-02T23:45:27.866Z,6.53
2023-05-02T23:47:56.037Z,6.43
2023-05-02T23:50:24.095Z,5.20
2023-05-02T23:52:52.379Z,7.20
2023-05-02T23:55:20.459Z,5.47
2023-05-02T23:57:48.471Z,6.37
